createdAt,value
2018-07-20T00:00:12.301Z,1002.12
2018-07-20T00:00:52.835Z,1002.13
2018-07-20T00:01:33.350Z,1002.12
2018-07-20T00:02:13.899Z,1002.14
2018-07-20T00:02:54.438Z,1002.12
2018-07-20T00:03:34.957Z,1002.14
2018-07-20T00:04:15.481Z,1002.12
2018-07-20T00:04:55.999Z,1002.14
2018-07-20T00:05:36.528Z,1002.12
2018-07-20T00:06:19.050Z,1002.11
2018-07-20T00:06:59.567Z,1002.11
2018-07-20T00:07:40.099Z,1002.09
2018-07-20T00:08:20.616Z,1002.07
2018-07-20T00:09:01.143Z,1002.07
2018-07-20T00:09:41.655Z,1002.02
2018-07-20T00:10:22.186Z,1002.06
2018-07-20T00:11:02.705Z,1002.04
2018-07-20T00:11:43.223Z,1002.08
2018-07-20T00:12:23.718Z,1002.04
2018-07-20T00:13:04.181Z,1002.03
2018-07-20T00:13:44.666Z,1002.02
2018-07-20T00:14:25.166Z,1002.03
2018-07-20T00:15:05.686Z,1002.01
2018-07-20T00:15:46.211Z,1002.01
2018-07-20T00:16:26.749Z,1002
2018-07-20T00:17:07.282Z,1001.99
2018-07-20T00:17:47.798Z,1001.97
2018-07-20T00:18:28.333Z,1001.97
2018-07-20T00:19:08.869Z,1001.96
2018-07-20T00:19:49.384Z,1001.97
2018-07-20T00:20:29.909Z,1001.95
2018-07-20T00:21:10.418Z,1001.97
2018-07-20T00:21:50.935Z,1001.91
2018-07-20T00:22:31.475Z,1001.95
2018-07-20T00:23:11.994Z,1001.91
2018-07-20T00:23:52.509Z,1001.92
2018-07-20T00:24:33.046Z,1001.89
2018-07-20T00:25:13.554Z,1001.9
2018-07-20T00:25:54.128Z,1001.83
2018-07-20T00:26:34.654Z,1001.87
2018-07-20T00:27:15.173Z,1001.88
2018-07-20T00:27:55.692Z,1001.85
2018-07-20T00:28:36.218Z,1001.91
2018-07-20T00:29:16.752Z,1001.9
2018-07-20T00:29:57.281Z,1001.9
2018-07-20T00:30:37.823Z,1001.84
2018-07-20T00:31:18.304Z,1001.85
2018-07-20T00:33:11.387Z,1001.91
2018-07-20T00:33:51.910Z,1001.89
2018-07-20T00:34:32.457Z,1001.88
2018-07-20T00:35:12.995Z,1001.91
2018-07-20T00:35:53.526Z,1001.94
2018-07-20T00:36:34.038Z,1001.89
2018-07-20T00:37:14.566Z,1001.87
2018-07-20T00:37:55.112Z,1001.87
2018-07-20T00:38:35.638Z,1001.85
2018-07-20T00:39:16.182Z,1001.89
2018-07-20T00:39:56.702Z,1001.86
2018-07-20T00:40:37.226Z,1001.86
2018-07-20T00:41:17.751Z,1001.8
2018-07-20T00:41:58.268Z,1001.81
2018-07-20T00:42:38.795Z,1001.82
2018-07-20T00:43:19.320Z,1001.76
2018-07-20T00:43:59.859Z,1001.8
2018-07-20T00:44:40.373Z,1001.8
2018-07-20T00:45:20.891Z,1001.73
2018-07-20T00:46:01.419Z,1001.75
2018-07-20T00:46:41.900Z,1001.7
2018-07-20T00:47:22.422Z,1001.66
2018-07-20T00:48:02.964Z,1001.69
2018-07-20T00:48:43.464Z,1001.66
2018-07-20T00:49:23.981Z,1001.67
2018-07-20T00:50:04.516Z,1001.65
2018-07-20T00:50:45.033Z,1001.64
2018-07-20T00:51:25.551Z,1001.61
2018-07-20T00:52:06.077Z,1001.61
2018-07-20T00:52:46.607Z,1001.59
2018-07-20T00:53:27.129Z,1001.61
2018-07-20T00:54:07.648Z,1001.57
2018-07-20T00:56:05.939Z,1001.58
2018-07-20T00:56:46.466Z,1001.57
2018-07-20T00:57:26.972Z,1001.57
2018-07-20T00:58:07.487Z,1001.51
2018-07-20T00:58:47.959Z,1001.51
2018-07-20T00:59:28.484Z,1001.54
2018-07-20T01:00:08.976Z,1001.53
2018-07-20T01:00:49.492Z,1001.53
2018-07-20T01:01:30.022Z,1001.5
2018-07-20T01:02:10.529Z,1001.51
2018-07-20T01:02:51.023Z,1001.55
2018-07-20T01:03:31.548Z,1001.51
2018-07-20T01:04:12.083Z,1001.47
2018-07-20T01:04:52.599Z,1001.53
2018-07-20T01:05:33.115Z,1001.5
2018-07-20T01:06:13.617Z,1001.5
2018-07-20T01:06:54.126Z,1001.49
2018-07-20T01:07:34.635Z,1001.47
2018-07-20T01:08:15.164Z,1001.43
2018-07-20T01:08:55.676Z,1001.47
2018-07-20T01:09:36.191Z,1001.46
2018-07-20T01:10:16.732Z,1001.44
2018-07-20T01:10:57.291Z,1001.44
2018-07-20T01:11:37.825Z,1001.46
2018-07-20T01:12:18.347Z,1001.41
2018-07-20T01:12:58.855Z,1001.43
2018-07-20T01:13:39.379Z,1001.45
2018-07-20T01:14:19.902Z,1001.4
2018-07-20T01:15:00.432Z,1001.41
2018-07-20T01:15:40.933Z,1001.41
2018-07-20T01:16:21.447Z,1001.42
2018-07-20T01:17:01.950Z,1001.42
2018-07-20T01:17:42.492Z,1001.4
2018-07-20T01:18:22.989Z,1001.45
2018-07-20T01:19:03.519Z,1001.39
2018-07-20T01:19:44.060Z,1001.43
2018-07-20T01:20:24.599Z,1001.37
2018-07-20T01:21:05.126Z,1001.42
2018-07-20T01:21:45.650Z,1001.41
2018-07-20T01:22:26.159Z,1001.37
2018-07-20T01:23:06.679Z,1001.39
2018-07-20T01:23:47.204Z,1001.38
2018-07-20T01:24:27.716Z,1001.36
2018-07-20T01:25:08.240Z,1001.4
2018-07-20T01:25:48.762Z,1001.38
2018-07-20T01:26:29.287Z,1001.38
2018-07-20T01:27:09.827Z,1001.36
2018-07-20T01:27:50.337Z,1001.31
2018-07-20T01:28:30.879Z,1001.39
2018-07-20T01:29:11.404Z,1001.37
2018-07-20T01:29:51.942Z,1001.37
2018-07-20T01:30:32.458Z,1001.38
2018-07-20T01:31:12.981Z,1001.37
2018-07-20T01:31:53.492Z,1001.4
2018-07-20T01:32:34.010Z,1001.39
2018-07-20T01:33:14.544Z,1001.31
2018-07-20T01:33:55.073Z,1001.33
2018-07-20T01:34:35.628Z,1001.33
2018-07-20T01:35:16.151Z,1001.35
2018-07-20T01:35:56.678Z,1001.36
2018-07-20T01:36:37.190Z,1001.35
2018-07-20T01:37:17.695Z,1001.35
2018-07-20T01:37:58.210Z,1001.35
2018-07-20T01:38:38.737Z,1001.35
2018-07-20T01:39:19.250Z,1001.3
2018-07-20T01:39:59.773Z,1001.32
2018-07-20T01:40:40.300Z,1001.31
2018-07-20T01:41:20.825Z,1001.29
2018-07-20T01:42:01.336Z,1001.34
2018-07-20T01:42:41.841Z,1001.34
2018-07-20T01:43:22.356Z,1001.28
2018-07-20T01:44:02.871Z,1001.32
2018-07-20T01:44:43.386Z,1001.33
2018-07-20T01:45:23.907Z,1001.31
2018-07-20T01:46:04.479Z,1001.34
2018-07-20T01:46:45.005Z,1001.33
2018-07-20T01:47:25.538Z,1001.37
2018-07-20T01:48:06.069Z,1001.32
2018-07-20T01:48:46.589Z,1001.34
2018-07-20T01:49:27.139Z,1001.35
2018-07-20T01:50:07.661Z,1001.31
2018-07-20T01:50:48.208Z,1001.33
2018-07-20T01:51:28.689Z,1001.31
2018-07-20T01:52:09.199Z,1001.35
2018-07-20T01:52:49.717Z,1001.29
2018-07-20T01:53:30.239Z,1001.32
2018-07-20T01:54:10.757Z,1001.29
2018-07-20T01:54:51.282Z,1001.3
2018-07-20T01:55:31.793Z,1001.32
2018-07-20T01:56:12.313Z,1001.3
2018-07-20T01:56:52.837Z,1001.32
2018-07-20T01:57:33.357Z,1001.3
2018-07-20T01:58:13.883Z,1001.29
2018-07-20T01:58:54.385Z,1001.29
2018-07-20T01:59:34.914Z,1001.25
2018-07-20T02:00:15.429Z,1001.23
2018-07-20T02:00:55.949Z,1001.27
2018-07-20T02:01:36.465Z,1001.24
2018-07-20T02:02:16.974Z,1001.27
2018-07-20T02:02:57.497Z,1001.24
2018-07-20T02:03:38.010Z,1001.22
2018-07-20T02:04:18.534Z,1001.24
2018-07-20T02:04:59.055Z,1001.25
2018-07-20T02:05:39.581Z,1001.22
2018-07-20T02:06:20.095Z,1001.23
2018-07-20T02:07:00.627Z,1001.21
2018-07-20T02:07:41.161Z,1001.23
2018-07-20T02:08:21.686Z,1001.21
2018-07-20T02:09:02.223Z,1001.22
2018-07-20T02:09:42.750Z,1001.21
2018-07-20T02:10:23.269Z,1001.25
2018-07-20T02:11:03.796Z,1001.23
2018-07-20T02:11:44.288Z,1001.2
2018-07-20T02:12:24.814Z,1001.23
2018-07-20T02:13:05.314Z,1001.2
2018-07-20T02:13:45.832Z,1001.24
2018-07-20T02:14:26.360Z,1001.29
2018-07-20T02:15:06.878Z,1001.27
2018-07-20T02:15:47.379Z,1001.28
2018-07-20T02:16:27.925Z,1001.26
2018-07-20T02:17:08.439Z,1001.25
2018-07-20T02:17:48.962Z,1001.25
2018-07-20T02:18:29.478Z,1001.29
2018-07-20T02:19:10.003Z,1001.3
2018-07-20T02:19:50.535Z,1001.27
2018-07-20T02:20:31.049Z,1001.29
2018-07-20T02:21:11.557Z,1001.32
2018-07-20T02:21:52.080Z,1001.35
2018-07-20T02:22:32.595Z,1001.29
2018-07-20T02:23:13.134Z,1001.29
2018-07-20T02:23:53.656Z,1001.37
2018-07-20T02:24:34.170Z,1001.36
2018-07-20T02:25:14.695Z,1001.31
2018-07-20T02:25:55.215Z,1001.31
2018-07-20T02:26:35.721Z,1001.32
2018-07-20T02:27:16.248Z,1001.31
2018-07-20T02:27:56.783Z,1001.31
2018-07-20T02:28:37.304Z,1001.3
2018-07-20T02:29:17.820Z,1001.32
2018-07-20T02:29:58.354Z,1001.27
2018-07-20T02:30:38.867Z,1001.32
2018-07-20T02:31:19.386Z,1001.32
2018-07-20T02:31:59.906Z,1001.28
2018-07-20T02:32:40.436Z,1001.29
2018-07-20T02:33:20.964Z,1001.3
2018-07-20T02:34:01.481Z,1001.27
2018-07-20T02:34:42.027Z,1001.27
2018-07-20T02:35:22.542Z,1001.31
2018-07-20T02:36:03.069Z,1001.35
2018-07-20T02:36:43.601Z,1001.3
2018-07-20T02:37:24.120Z,1001.29
2018-07-20T02:38:04.648Z,1001.29
2018-07-20T02:38:45.163Z,1001.29
2018-07-20T02:39:25.682Z,1001.29
2018-07-20T02:40:06.207Z,1001.29
2018-07-20T02:40:46.721Z,1001.27
2018-07-20T02:41:27.253Z,1001.26
2018-07-20T02:42:07.770Z,1001.27
2018-07-20T02:42:48.315Z,1001.31
2018-07-20T02:43:28.836Z,1001.23
2018-07-20T02:44:09.355Z,1001.26
2018-07-20T02:44:49.875Z,1001.27
2018-07-20T02:45:30.398Z,1001.24
2018-07-20T02:46:10.917Z,1001.27
2018-07-20T02:46:51.435Z,1001.26
2018-07-20T02:47:31.954Z,1001.26
2018-07-20T02:48:12.487Z,1001.31
2018-07-20T02:48:53.010Z,1001.3
2018-07-20T02:49:33.550Z,1001.33
2018-07-20T02:50:14.068Z,1001.35
2018-07-20T02:50:54.598Z,1001.34
2018-07-20T02:51:35.122Z,1001.33
2018-07-20T02:52:15.626Z,1001.31
2018-07-20T02:52:56.135Z,1001.33
2018-07-20T02:53:36.658Z,1001.3
2018-07-20T02:54:17.182Z,1001.31
2018-07-20T02:54:57.698Z,1001.36
2018-07-20T02:55:38.213Z,1001.32
2018-07-20T02:56:18.726Z,1001.3
2018-07-20T02:56:59.243Z,1001.28
2018-07-20T02:57:39.765Z,1001.25
2018-07-20T02:58:20.281Z,1001.3
2018-07-20T02:59:00.798Z,1001.26
2018-07-20T02:59:41.312Z,1001.28
2018-07-20T03:00:21.844Z,1001.27
2018-07-20T03:01:02.367Z,1001.32
2018-07-20T03:01:42.870Z,1001.28
2018-07-20T03:02:23.414Z,1001.29
2018-07-20T03:03:03.922Z,1001.33
2018-07-20T03:03:44.431Z,1001.31
2018-07-20T03:04:24.960Z,1001.25
2018-07-20T03:05:05.479Z,1001.29
2018-07-20T03:05:46.004Z,1001.28
2018-07-20T03:06:26.532Z,1001.31
2018-07-20T03:07:07.049Z,1001.29
2018-07-20T03:07:47.573Z,1001.33
2018-07-20T03:08:28.081Z,1001.32
2018-07-20T03:09:08.698Z,1001.27
2018-07-20T03:09:49.107Z,1001.28
2018-07-20T03:10:29.623Z,1001.29
2018-07-20T03:11:10.138Z,1001.27
2018-07-20T03:11:50.663Z,1001.32
2018-07-20T03:13:11.736Z,1001.28
2018-07-20T03:13:52.258Z,1001.33
2018-07-20T03:14:32.781Z,1001.29
2018-07-20T03:15:13.312Z,1001.29
2018-07-20T03:15:53.836Z,1001.25
2018-07-20T03:16:34.356Z,1001.3
2018-07-20T03:17:14.884Z,1001.29
2018-07-20T03:17:55.409Z,1001.24
2018-07-20T03:18:35.935Z,1001.25
2018-07-20T03:19:16.455Z,1001.27
2018-07-20T03:19:56.971Z,1001.27
2018-07-20T03:20:37.494Z,1001.24
2018-07-20T03:21:18.018Z,1001.24
2018-07-20T03:21:58.542Z,1001.24
2018-07-20T03:22:39.043Z,1001.27
2018-07-20T03:23:19.577Z,1001.22
2018-07-20T03:24:00.104Z,1001.23
2018-07-20T03:24:40.638Z,1001.25
2018-07-20T03:25:21.152Z,1001.25
2018-07-20T03:26:01.681Z,1001.26
2018-07-20T03:26:42.198Z,1001.24
2018-07-20T03:27:22.729Z,1001.24
2018-07-20T03:28:03.257Z,1001.25
2018-07-20T03:28:43.778Z,1001.29
2018-07-20T03:29:24.293Z,1001.21
2018-07-20T03:30:04.827Z,1001.27
2018-07-20T03:30:45.358Z,1001.26
2018-07-20T03:31:25.873Z,1001.22
2018-07-20T03:32:06.393Z,1001.2
2018-07-20T03:32:46.922Z,1001.23
2018-07-20T03:33:27.432Z,1001.23
2018-07-20T03:34:07.956Z,1001.22
2018-07-20T03:34:48.498Z,1001.21
2018-07-20T03:35:29.007Z,1001.19
2018-07-20T03:36:09.535Z,1001.18
2018-07-20T03:36:50.060Z,1001.18
2018-07-20T03:37:30.590Z,1001.2
2018-07-20T03:38:11.119Z,1001.23
2018-07-20T03:38:51.635Z,1001.22
2018-07-20T03:39:32.168Z,1001.22
2018-07-20T03:40:12.936Z,1001.22
2018-07-20T03:40:53.449Z,1001.18
2018-07-20T03:41:33.973Z,1001.2
2018-07-20T03:42:14.486Z,1001.2
2018-07-20T03:42:55.009Z,1001.16
2018-07-20T03:43:35.630Z,1001.18
2018-07-20T03:44:16.051Z,1001.18
2018-07-20T03:44:56.573Z,1001.19
2018-07-20T03:45:37.104Z,1001.18
2018-07-20T03:46:17.627Z,1001.13
2018-07-20T03:46:58.142Z,1001.19
2018-07-20T03:47:38.682Z,1001.18
2018-07-20T03:48:19.212Z,1001.2
2018-07-20T03:48:59.830Z,1001.14
2018-07-20T03:49:40.254Z,1001.17
2018-07-20T03:50:20.781Z,1001.19
2018-07-20T03:51:01.334Z,1001.18
2018-07-20T03:51:41.847Z,1001.17
2018-07-20T03:52:22.380Z,1001.13
2018-07-20T03:53:02.893Z,1001.14
2018-07-20T03:53:43.420Z,1001.13
2018-07-20T03:54:23.983Z,1001.12
2018-07-20T03:55:04.472Z,1001.12
2018-07-20T03:55:44.999Z,1001.11
2018-07-20T03:56:25.524Z,1001.1
2018-07-20T03:57:06.036Z,1001.11
2018-07-20T03:57:46.567Z,1001.08
2018-07-20T03:58:27.091Z,1001.1
2018-07-20T03:59:07.602Z,1001.11
2018-07-20T03:59:48.135Z,1001.1
2018-07-20T04:00:28.656Z,1001.08
2018-07-20T04:01:09.169Z,1001.09
2018-07-20T04:01:49.689Z,1001.1
2018-07-20T04:02:30.256Z,1001.08
2018-07-20T04:03:10.743Z,1001.12
2018-07-20T04:03:51.268Z,1001.07
2018-07-20T04:04:31.814Z,1001.1
2018-07-20T04:05:12.324Z,1001.09
2018-07-20T04:05:52.840Z,1001.08
2018-07-20T04:06:33.363Z,1001.09
2018-07-20T04:07:13.890Z,1001.1
2018-07-20T04:07:54.408Z,1001.07
2018-07-20T04:08:34.933Z,1001.04
2018-07-20T04:09:15.475Z,1001.03
2018-07-20T04:09:55.987Z,1001.04
2018-07-20T04:10:36.517Z,1001.07
2018-07-20T04:11:17.045Z,1001.02
2018-07-20T04:11:57.556Z,1001.04
2018-07-20T04:12:38.074Z,1001.02
2018-07-20T04:13:18.577Z,1001.03
2018-07-20T04:13:59.099Z,1001.01
2018-07-20T04:14:39.620Z,1001.02
2018-07-20T04:15:20.150Z,1001.02
2018-07-20T04:16:00.665Z,1001.05
2018-07-20T04:16:41.186Z,1001.02
2018-07-20T04:17:21.713Z,1001.03
2018-07-20T04:18:02.243Z,1000.99
2018-07-20T04:18:42.766Z,1000.97
2018-07-20T04:19:23.281Z,1000.98
2018-07-20T04:20:03.800Z,1000.98
2018-07-20T04:20:44.315Z,1001
2018-07-20T04:21:24.833Z,1001.01
2018-07-20T04:22:05.350Z,1000.97
2018-07-20T04:22:45.864Z,1000.99
2018-07-20T04:23:26.380Z,1000.98
2018-07-20T04:24:06.896Z,1001.02
2018-07-20T04:24:47.422Z,1000.99
2018-07-20T04:25:27.940Z,1001
2018-07-20T04:26:08.463Z,1000.99
2018-07-20T04:26:48.981Z,1001.02
2018-07-20T04:27:29.494Z,1000.99
2018-07-20T04:28:10.023Z,1001.02
2018-07-20T04:28:50.550Z,1001
2018-07-20T04:29:31.070Z,1001.03
2018-07-20T04:30:11.610Z,1000.97
2018-07-20T04:30:52.137Z,1001.05
2018-07-20T04:31:32.674Z,1001.04
2018-07-20T04:32:13.201Z,1000.99
2018-07-20T04:32:53.730Z,1000.99
2018-07-20T04:33:34.254Z,1000.98
2018-07-20T04:34:14.767Z,1001
2018-07-20T04:34:55.277Z,1001.01
2018-07-20T04:35:35.826Z,1000.99
2018-07-20T04:36:16.363Z,1000.98
2018-07-20T04:36:56.856Z,1000.98
2018-07-20T04:37:37.371Z,1000.94
2018-07-20T04:38:17.905Z,1001.01
2018-07-20T04:38:58.624Z,1001.02
2018-07-20T04:39:39.194Z,1001
2018-07-20T04:40:19.713Z,1000.99
2018-07-20T04:41:00.267Z,1000.99
2018-07-20T04:41:40.765Z,1000.95
2018-07-20T04:42:21.289Z,1000.98
2018-07-20T04:43:01.912Z,1000.98
2018-07-20T04:43:42.526Z,1001.02
2018-07-20T04:44:23.069Z,1001.03
2018-07-20T04:45:03.516Z,1000.97
2018-07-20T04:45:44.041Z,1001.02
2018-07-20T04:46:24.599Z,1001.04
2018-07-20T04:47:05.114Z,1001.06
2018-07-20T04:47:45.646Z,1001.04
2018-07-20T04:48:26.166Z,1001.03
2018-07-20T04:49:06.708Z,1001.07
2018-07-20T04:49:47.323Z,1001.04
2018-07-20T04:50:27.796Z,1001.06
2018-07-20T04:51:08.323Z,1001.08
2018-07-20T04:51:48.838Z,1001.08
2018-07-20T04:52:29.356Z,1001.07
2018-07-20T04:53:09.909Z,1001.07
2018-07-20T04:53:50.428Z,1001.08
2018-07-20T04:54:30.978Z,1001.15
2018-07-20T04:55:11.485Z,1001.07
2018-07-20T04:55:52.304Z,1001.09
2018-07-20T04:56:32.666Z,1001.09
2018-07-20T04:57:13.184Z,1001.09
2018-07-20T04:57:53.708Z,1001.11
2018-07-20T04:58:34.220Z,1001.07
2018-07-20T04:59:14.767Z,1001.08
2018-07-20T04:59:55.301Z,1001.09
2018-07-20T05:00:35.818Z,1001.12
2018-07-20T05:01:16.350Z,1001.13
2018-07-20T05:01:56.856Z,1001.13
2018-07-20T05:02:37.382Z,1001.12
2018-07-20T05:03:17.928Z,1001.13
2018-07-20T05:03:58.446Z,1001.14
2018-07-20T05:04:38.970Z,1001.15
2018-07-20T05:05:19.497Z,1001.12
2018-07-20T05:06:00.129Z,1001.15
2018-07-20T05:06:40.546Z,1001.16
2018-07-20T05:07:21.059Z,1001.13
2018-07-20T05:08:01.570Z,1001.14
2018-07-20T05:08:42.075Z,1001.16
2018-07-20T05:09:22.595Z,1001.13
2018-07-20T05:10:03.111Z,1001.16
2018-07-20T05:10:43.638Z,1001.15
2018-07-20T05:11:24.211Z,1001.13
2018-07-20T05:12:04.737Z,1001.11
2018-07-20T05:12:45.196Z,1001.09
2018-07-20T05:13:25.715Z,1001.13
2018-07-20T05:14:06.238Z,1001.1
2018-07-20T05:14:46.757Z,1001.11
2018-07-20T05:15:27.272Z,1001.08
2018-07-20T05:16:07.810Z,1001.11
2018-07-20T05:16:48.329Z,1001.15
2018-07-20T05:17:28.891Z,1001.11
2018-07-20T05:18:09.370Z,1001.12
2018-07-20T05:18:49.884Z,1001.11
2018-07-20T05:19:30.414Z,1001.09
2018-07-20T05:20:10.917Z,1001.06
2018-07-20T05:20:51.458Z,1001.06
2018-07-20T05:21:31.986Z,1001.04
2018-07-20T05:22:12.586Z,1001.01
2018-07-20T05:22:53.024Z,1001.06
2018-07-20T05:23:33.495Z,1001.08
2018-07-20T05:24:14.154Z,1001.01
2018-07-20T05:24:54.552Z,1001.03
2018-07-20T05:25:35.045Z,1001.05
2018-07-20T05:26:15.552Z,1001.05
2018-07-20T05:26:56.022Z,1001.02
2018-07-20T05:27:36.679Z,1001.04
2018-07-20T05:28:17.020Z,1001.05
2018-07-20T05:28:57.547Z,1001.03
2018-07-20T05:29:38.106Z,1001.01
2018-07-20T05:30:18.623Z,1001.03
2018-07-20T05:30:59.200Z,1001.01
2018-07-20T05:31:39.688Z,1001.01
2018-07-20T05:32:20.169Z,1001.04
2018-07-20T05:33:00.653Z,1000.99
2018-07-20T05:33:41.168Z,1001
2018-07-20T05:34:21.692Z,1000.97
2018-07-20T05:35:02.216Z,1001
2018-07-20T05:35:42.735Z,1000.98
2018-07-20T05:36:23.329Z,1000.98
2018-07-20T05:37:03.868Z,1000.98
2018-07-20T05:37:44.358Z,1000.97
2018-07-20T05:38:25.053Z,1001.02
2018-07-20T05:39:05.394Z,1001
2018-07-20T05:39:45.996Z,1000.99
2018-07-20T05:40:26.452Z,1000.99
2018-07-20T05:41:07.035Z,1000.95
2018-07-20T05:41:47.532Z,1001
2018-07-20T05:42:28.052Z,1001
2018-07-20T05:43:08.647Z,1000.97
2018-07-20T05:43:49.180Z,1000.96
2018-07-20T05:44:29.716Z,1001.03
2018-07-20T05:45:10.327Z,1000.99
2018-07-20T05:45:50.846Z,1000.98
2018-07-20T05:46:31.383Z,1000.99
2018-07-20T05:47:11.935Z,1001.01
2018-07-20T05:47:52.469Z,1000.94
2018-07-20T05:48:33.084Z,1000.94
2018-07-20T05:49:13.600Z,1000.97
2018-07-20T05:49:54.139Z,1000.96
2018-07-20T05:50:34.649Z,1000.93
2018-07-20T05:51:15.204Z,1000.95
2018-07-20T05:51:55.724Z,1000.92
2018-07-20T05:52:36.258Z,1000.94
2018-07-20T05:53:16.825Z,1001
2018-07-20T05:53:57.284Z,1000.95
2018-07-20T05:54:37.812Z,1000.96
2018-07-20T05:55:18.323Z,1000.95
2018-07-20T05:55:58.867Z,1000.99
2018-07-20T05:56:39.387Z,1000.93
2018-07-20T05:57:19.916Z,1000.94
2018-07-20T05:58:00.442Z,1000.97
2018-07-20T05:58:40.957Z,1000.99
2018-07-20T05:59:21.482Z,1000.95
2018-07-20T06:00:02.008Z,1000.94
2018-07-20T06:00:42.561Z,1000.96
2018-07-20T06:01:23.088Z,1000.91
2018-07-20T06:02:03.616Z,1000.98
2018-07-20T06:02:44.131Z,1000.93
2018-07-20T06:03:24.838Z,1000.93
2018-07-20T06:04:05.436Z,1000.97
2018-07-20T06:04:45.925Z,1000.91
2018-07-20T06:05:26.541Z,1000.92
2018-07-20T06:06:07.061Z,1000.94
2018-07-20T06:06:47.594Z,1000.92
2018-07-20T06:07:28.101Z,1000.9
2018-07-20T06:08:08.608Z,1000.9
2018-07-20T06:08:49.133Z,1000.92
2018-07-20T06:09:29.636Z,1000.94
2018-07-20T06:10:10.196Z,1000.93
2018-07-20T06:10:50.701Z,1000.85
2018-07-20T06:11:31.240Z,1000.91
2018-07-20T06:12:11.765Z,1000.89
2018-07-20T06:12:52.287Z,1000.89
2018-07-20T06:13:32.812Z,1000.9
2018-07-20T06:14:13.403Z,1000.88
2018-07-20T06:14:53.881Z,1000.88
2018-07-20T06:15:34.427Z,1000.86
2018-07-20T06:16:14.917Z,1000.85
2018-07-20T06:16:55.431Z,1000.83
2018-07-20T06:17:35.936Z,1000.86
2018-07-20T06:18:16.462Z,1000.85
2018-07-20T06:18:57.024Z,1000.86
2018-07-20T06:19:37.771Z,1000.89
2018-07-20T06:20:18.301Z,1000.87
2018-07-20T06:20:58.775Z,1000.81
2018-07-20T06:21:39.307Z,1000.85
2018-07-20T06:22:19.824Z,1000.89
2018-07-20T06:23:00.373Z,1000.85
2018-07-20T06:23:40.949Z,1000.82
2018-07-20T06:24:21.388Z,1000.88
2018-07-20T06:25:01.954Z,1000.89
2018-07-20T06:25:42.396Z,1000.84
2018-07-20T06:26:22.945Z,1000.86
2018-07-20T06:27:03.403Z,1000.84
2018-07-20T06:27:43.895Z,1000.87
2018-07-20T06:28:24.474Z,1000.86
2018-07-20T06:29:04.977Z,1000.84
2018-07-20T06:29:45.489Z,1000.85
2018-07-20T06:30:25.964Z,1000.88
2018-07-20T06:31:06.492Z,1000.88
2018-07-20T06:31:47.111Z,1000.88
2018-07-20T06:32:27.680Z,1000.89
2018-07-20T06:33:08.178Z,1000.9
2018-07-20T06:33:48.676Z,1000.88
2018-07-20T06:34:29.150Z,1000.86
2018-07-20T06:35:09.628Z,1000.87
2018-07-20T06:35:50.149Z,1000.91
2018-07-20T06:36:30.699Z,1000.93
2018-07-20T06:37:11.175Z,1000.91
2018-07-20T06:37:51.748Z,1000.92
2018-07-20T06:38:32.263Z,1000.91
2018-07-20T06:39:12.793Z,1000.92
2018-07-20T06:39:53.329Z,1000.9
2018-07-20T06:40:33.853Z,1000.92
2018-07-20T06:41:14.352Z,1000.95
2018-07-20T06:41:54.881Z,1000.89
2018-07-20T06:42:35.414Z,1000.94
2018-07-20T06:43:15.990Z,1000.92
2018-07-20T06:43:56.531Z,1000.92
2018-07-20T06:44:37.024Z,1000.96
2018-07-20T06:45:17.560Z,1000.91
2018-07-20T06:45:58.100Z,1000.91
2018-07-20T06:46:38.666Z,1000.9
2018-07-20T06:47:19.186Z,1000.86
2018-07-20T06:47:59.714Z,1000.89
2018-07-20T06:48:40.230Z,1000.88
2018-07-20T06:49:20.857Z,1000.88
2018-07-20T06:50:01.393Z,1000.91
2018-07-20T06:50:41.916Z,1000.95
2018-07-20T06:51:22.433Z,1000.92
2018-07-20T06:52:02.966Z,1000.95
2018-07-20T06:52:43.480Z,1000.95
2018-07-20T06:53:24.008Z,1000.92
2018-07-20T06:54:04.525Z,1000.91
2018-07-20T06:54:45.060Z,1000.93
2018-07-20T06:55:25.580Z,1000.95
2018-07-20T06:56:06.106Z,1000.91
2018-07-20T06:56:46.628Z,1000.95
2018-07-20T06:57:27.152Z,1000.95
2018-07-20T06:58:07.691Z,1000.95
2018-07-20T06:58:48.211Z,1000.96
2018-07-20T06:59:28.741Z,1000.98
2018-07-20T07:00:09.264Z,1000.98
2018-07-20T07:00:49.770Z,1000.94
2018-07-20T07:01:30.303Z,1000.96
2018-07-20T07:02:10.821Z,1000.94
2018-07-20T07:02:51.352Z,1001.01
2018-07-20T07:03:31.835Z,1000.99
2018-07-20T07:04:12.351Z,1001
2018-07-20T07:04:52.875Z,1001.01
2018-07-20T07:05:33.407Z,1001
2018-07-20T07:06:13.907Z,1000.96
2018-07-20T07:06:54.451Z,1000.97
2018-07-20T07:07:34.978Z,1000.97
2018-07-20T07:08:15.613Z,1001.05
2018-07-20T07:08:56.135Z,1001.03
2018-07-20T07:09:36.660Z,1001.02
2018-07-20T07:10:17.223Z,1001.02
2018-07-20T07:10:57.745Z,1001.01
2018-07-20T07:11:38.282Z,1001.01
2018-07-20T07:12:18.813Z,1001.02
2018-07-20T07:12:59.357Z,1001.04
2018-07-20T07:13:39.829Z,1001.06
2018-07-20T07:14:20.351Z,1001.04
2018-07-20T07:15:00.941Z,1001.02
2018-07-20T07:15:41.382Z,1001.01
2018-07-20T07:16:21.918Z,1001
2018-07-20T07:17:02.445Z,1001.02
2018-07-20T07:17:42.965Z,1000.95
2018-07-20T07:18:23.487Z,1000.99
2018-07-20T07:19:04.038Z,1000.93
2018-07-20T07:19:44.558Z,1000.94
2018-07-20T07:20:25.080Z,1001
2018-07-20T07:21:05.614Z,1000.93
2018-07-20T07:21:46.141Z,1000.94
2018-07-20T07:22:26.661Z,1000.92
2018-07-20T07:23:07.197Z,1000.96
2018-07-20T07:23:47.693Z,1000.9
2018-07-20T07:24:28.208Z,1000.92
2018-07-20T07:25:08.729Z,1000.93
2018-07-20T07:25:49.273Z,1000.92
2018-07-20T07:26:29.827Z,1000.92
2018-07-20T07:27:10.355Z,1000.91
2018-07-20T07:27:50.885Z,1000.89
2018-07-20T07:28:31.380Z,1000.91
2018-07-20T07:29:11.989Z,1000.92
2018-07-20T07:29:52.441Z,1000.94
2018-07-20T07:30:32.973Z,1000.92
2018-07-20T07:31:13.490Z,1000.96
2018-07-20T07:31:54.019Z,1001
2018-07-20T07:32:34.535Z,1000.96
2018-07-20T07:33:15.041Z,1001
2018-07-20T07:33:55.579Z,1000.94
2018-07-20T07:34:36.116Z,1000.98
2018-07-20T07:35:16.633Z,1000.94
2018-07-20T07:35:57.163Z,1000.95
2018-07-20T07:36:37.658Z,1001
2018-07-20T07:37:18.184Z,1001.02
2018-07-20T07:37:58.681Z,1000.99
2018-07-20T07:38:39.191Z,1000.99
2018-07-20T07:39:19.862Z,1001.01
2018-07-20T07:40:00.383Z,1001
2018-07-20T07:40:40.902Z,1000.99
2018-07-20T07:41:21.459Z,1000.95
2018-07-20T07:42:01.975Z,1000.98
2018-07-20T07:42:42.491Z,1001.01
2018-07-20T07:43:23.003Z,1001.02
2018-07-20T07:44:03.520Z,1001.05
2018-07-20T07:44:44.052Z,1001
2018-07-20T07:45:24.597Z,1001.03
2018-07-20T07:46:05.090Z,1001.02
2018-07-20T07:46:45.612Z,1001.02
2018-07-20T07:47:26.118Z,1001.04
2018-07-20T07:48:06.626Z,1001.02
2018-07-20T07:48:47.129Z,1001.02
2018-07-20T07:49:27.746Z,1001.06
2018-07-20T07:50:08.169Z,1001.06
2018-07-20T07:50:48.713Z,1001.03
2018-07-20T07:51:29.227Z,1001.04
2018-07-20T07:52:09.761Z,1000.99
2018-07-20T07:52:50.295Z,1001.04
2018-07-20T07:53:30.846Z,1001.04
2018-07-20T07:54:11.395Z,1001.03
2018-07-20T07:54:51.966Z,1001.06
2018-07-20T07:55:32.417Z,1001.05
2018-07-20T07:56:12.950Z,1001.04
2018-07-20T07:56:53.472Z,1001.06
2018-07-20T07:57:34.008Z,1001.01
2018-07-20T07:58:14.494Z,1001.03
2018-07-20T07:58:55.158Z,1001.04
2018-07-20T07:59:35.603Z,1001.01
2018-07-20T08:00:16.104Z,1001.05
2018-07-20T08:00:56.604Z,1001.09
2018-07-20T08:01:37.121Z,1001.06
2018-07-20T08:02:17.671Z,1001.07
2018-07-20T08:02:58.215Z,1001.05
2018-07-20T08:03:38.648Z,1001.11
2018-07-20T08:04:19.182Z,1001.08
2018-07-20T08:04:59.666Z,1001.09
2018-07-20T08:05:40.174Z,1001.03
2018-07-20T08:06:20.716Z,1001.05
2018-07-20T08:07:01.244Z,1001.02
2018-07-20T08:07:41.765Z,1001.09
2018-07-20T08:08:22.295Z,1001.07
2018-07-20T08:09:02.782Z,1001.09
2018-07-20T08:09:43.327Z,1001.09
2018-07-20T08:10:23.833Z,1001.06
2018-07-20T08:11:04.324Z,1001.08
2018-07-20T08:11:44.841Z,1001.08
2018-07-20T08:12:25.773Z,1001.05
2018-07-20T08:13:06.316Z,1001.07
2018-07-20T08:13:46.839Z,1001.05
2018-07-20T08:14:27.355Z,1001.04
2018-07-20T08:15:07.883Z,1001.04
2018-07-20T08:15:48.467Z,1000.99